עמוד ראשי
METAR-TAF:

METAR-TAF

שדות תעופה :

נמל התעופה הבינלאומי אל עריש

אל עריש, מצרים

קו רוחב: 31-05N, קו אורך: 033-49E, גובה: 31מטר

תצפית מזג אוויר נוכחית

הדו"ח נערך לפני 1 שעות ו 15דקות, בשעה 09:00 UTC
רוח 6קשר מכיוון צפון/צפון-מערב
טמפרטורת 30 צלסיוס
לחות 59%
לחץ 1009 hPa
ראות 10 קילומטר או יותר
ללא עננים שבסיסם נמוך מ 5000 רגל או קומולונימבוס

METAR: HEAR 190900Z 33006KT CAVOK 30/21 Q1009 NOSIG

זמן: 12:15 (10:15 UTC)

תחזית

הדו"ח נערך לפני 5 שעות ו 15דקות, בשעה 05:00 UTC
תחזית בתוקף מ 19 ב 06 UTC עד 20 ב 12 UTC
רוח 8קשר מכיוון דרום-מערב
ראות 10 קילומטר או יותר
מעט עננים בגובה 2500רגל

TAF: HEAR 190500Z 1906/2012 23008KT 9999 FEW025

תצפיות ותחזיות מזג אוויר לגבי יותר מ- 4,000 שדות תעופה ברחבי העולם. דוחות METAR ו- TAF.

התחנות הזמינות מסומנות בנקודות צהובות ואדומות על גבי המפה.

העבר את העכבר לנקודה הצבעונית על מנת לראות את שם התחנה.

לאחר מכן, לחץ כדי לראות את תוכן ואת תחזיות מזג האוויר.

כדי לשנות את המפה: לחץ על הכפתורים הירוקים עם הפלוס השחור כדי להתקרב; על הכפתור הירוק עם המקף כדי להתרחק; או בחיצים הירוקים למפות סמוכות.


METAR-TAF: